createdAt,value
2023-02-14T00:00:12.747Z,4.70
2023-02-14T00:01:46.018Z,4.70
2023-02-14T00:03:18.917Z,4.70
2023-02-14T00:04:53.026Z,4.70
2023-02-14T00:06:24.803Z,4.70
2023-02-14T00:07:57.488Z,4.70
2023-02-14T00:09:30.326Z,4.70
2023-02-14T00:11:03.275Z,4.60
2023-02-14T00:12:36.109Z,4.60
2023-02-14T00:14:26.942Z,4.60
2023-02-14T00:15:59.644Z,4.60
2023-02-14T00:17:32.351Z,4.60
2023-02-14T00:19:04.249Z,4.60
2023-02-14T00:20:38.287Z,4.60
2023-02-14T00:22:10.969Z,4.50
2023-02-14T00:23:43.690Z,4.50
2023-02-14T00:25:16.577Z,4.50
2023-02-14T00:26:50.059Z,4.40
2023-02-14T00:28:22.758Z,4.40
2023-02-14T00:29:58.115Z,4.40
2023-02-14T00:31:30.976Z,4.40
2023-02-14T00:33:03.705Z,4.30
2023-02-14T00:34:37.334Z,4.30
2023-02-14T00:36:12.816Z,4.30
2023-02-14T00:37:47.149Z,4.30
2023-02-14T00:39:19.759Z,4.30
2023-02-14T00:40:52.457Z,4.30
2023-02-14T00:42:25.175Z,4.40
2023-02-14T00:43:57.983Z,4.40
2023-02-14T00:45:30.693Z,4.40
2023-02-14T00:47:03.431Z,4.30
2023-02-14T00:48:36.113Z,4.30
2023-02-14T00:50:09.612Z,4.30
2023-02-14T00:51:42.701Z,4.40
2023-02-14T00:53:15.730Z,4.40
2023-02-14T00:54:48.436Z,4.40
2023-02-14T00:56:22.150Z,4.30
2023-02-14T00:57:54.846Z,4.30
2023-02-14T00:59:27.615Z,4.30
2023-02-14T01:01:00.413Z,4.30
2023-02-14T01:02:33.409Z,4.20
2023-02-14T01:04:06.275Z,4.20
2023-02-14T01:05:39.034Z,4.20
2023-02-14T01:07:13.070Z,4.20
2023-02-14T01:08:45.983Z,4.10
2023-02-14T01:10:18.790Z,4.10
2023-02-14T01:11:51.563Z,4.10
2023-02-14T01:13:23.707Z,4.10
2023-02-14T01:14:56.560Z,4.10
2023-02-14T01:16:32.035Z,4.10
2023-02-14T01:18:04.871Z,4.10
2023-02-14T01:19:38.247Z,4.10
2023-02-14T01:21:15.351Z,4.10
2023-02-14T01:22:49.453Z,4.00
2023-02-14T01:24:22.158Z,4.00
2023-02-14T01:25:53.896Z,4.00
2023-02-14T01:27:26.584Z,3.90
2023-02-14T01:28:59.324Z,4.00
2023-02-14T01:30:31.157Z,3.90
2023-02-14T01:32:03.970Z,3.90
2023-02-14T01:33:36.072Z,3.90
2023-02-14T01:35:09.473Z,3.90
2023-02-14T01:36:42.345Z,3.90
2023-02-14T01:38:15.405Z,3.90
2023-02-14T01:39:48.106Z,3.90
2023-02-14T01:41:20.264Z,3.90
2023-02-14T01:42:52.959Z,3.90
2023-02-14T01:44:59.216Z,3.90
2023-02-14T01:46:33.667Z,3.90
2023-02-14T01:48:06.538Z,3.80
2023-02-14T01:49:44.033Z,3.80
2023-02-14T01:51:19.618Z,3.70
2023-02-14T01:52:56.232Z,3.70
2023-02-14T01:54:31.637Z,3.60
2023-02-14T01:56:08.200Z,3.60
2023-02-14T01:57:44.660Z,3.60
2023-02-14T01:59:21.941Z,3.60
2023-02-14T02:01:00.150Z,3.50
2023-02-14T02:02:33.188Z,3.50
2023-02-14T02:04:10.161Z,3.50
2023-02-14T02:05:48.214Z,3.40
2023-02-14T02:07:25.109Z,3.40
2023-02-14T02:09:06.854Z,3.40
2023-02-14T02:10:40.891Z,3.40
2023-02-14T02:12:14.037Z,3.40
2023-02-14T02:13:46.728Z,3.40
2023-02-14T02:15:18.842Z,3.50
2023-02-14T02:17:11.665Z,3.50
2023-02-14T02:18:57.353Z,3.50
2023-02-14T02:20:56.871Z,3.50
2023-02-14T02:22:58.825Z,3.50
2023-02-14T02:24:41.472Z,3.50
2023-02-14T02:26:50.135Z,3.50
2023-02-14T02:29:03.258Z,3.40
2023-02-14T02:31:33.485Z,3.40
2023-02-14T02:33:41.509Z,3.30
2023-02-14T02:35:36.210Z,3.30
2023-02-14T02:37:24.566Z,3.30
2023-02-14T02:39:11.818Z,3.20
2023-02-14T02:40:49.610Z,3.20
2023-02-14T02:42:35.020Z,3.20
2023-02-14T02:44:16.195Z,3.10
2023-02-14T02:46:15.458Z,3.10
2023-02-14T02:47:58.124Z,3.10
2023-02-14T02:50:00.709Z,3.10
2023-02-14T02:51:57.851Z,3.10
2023-02-14T02:53:40.358Z,3.00
2023-02-14T02:55:17.054Z,3.00
2023-02-14T02:56:53.428Z,3.10
2023-02-14T02:58:30.758Z,3.10
2023-02-14T03:00:06.845Z,3.10
2023-02-14T03:01:42.121Z,3.00
2023-02-14T03:03:33.644Z,3.00
2023-02-14T03:05:06.656Z,3.10
2023-02-14T03:06:40.700Z,3.10
2023-02-14T03:08:13.408Z,3.10
2023-02-14T03:09:53.668Z,3.20
2023-02-14T03:11:27.348Z,3.20
2023-02-14T03:13:31.443Z,3.20
2023-02-14T03:15:12.154Z,3.20
2023-02-14T03:16:57.282Z,3.20
2023-02-14T03:18:51.403Z,3.10
2023-02-14T03:20:30.954Z,3.10
2023-02-14T03:22:09.334Z,3.10
2023-02-14T03:23:50.376Z,3.10
2023-02-14T03:25:41.596Z,3.10
2023-02-14T03:27:19.454Z,3.10
2023-02-14T03:28:58.675Z,3.10
2023-02-14T03:30:40.258Z,3.10
2023-02-14T03:32:20.252Z,3.10
2023-02-14T03:34:00.451Z,3.10
2023-02-14T03:35:38.033Z,3.10
2023-02-14T03:37:16.187Z,3.10
2023-02-14T03:38:52.492Z,3.10
2023-02-14T03:40:28.765Z,3.10
2023-02-14T03:42:06.390Z,3.10
2023-02-14T03:43:45.098Z,3.10
2023-02-14T03:45:22.116Z,3.00
2023-02-14T03:46:59.540Z,2.90
2023-02-14T03:48:34.537Z,2.90
2023-02-14T03:50:10.963Z,2.80
2023-02-14T03:51:47.612Z,2.80
2023-02-14T03:53:26.414Z,2.80
2023-02-14T03:55:01.468Z,2.70
2023-02-14T03:56:39.691Z,2.70
2023-02-14T03:58:17.414Z,2.70
2023-02-14T03:59:49.857Z,2.70
2023-02-14T04:01:26.747Z,2.70
2023-02-14T04:03:04.814Z,2.70
2023-02-14T04:04:41.470Z,2.70
2023-02-14T04:06:14.479Z,2.70
2023-02-14T04:07:48.960Z,2.70
2023-02-14T04:09:23.005Z,2.70
2023-02-14T04:10:59.315Z,2.70
2023-02-14T04:12:37.690Z,2.70
2023-02-14T04:14:10.945Z,2.60
2023-02-14T04:15:43.710Z,2.60
2023-02-14T04:17:34.128Z,2.60
2023-02-14T04:19:24.055Z,2.60
2023-02-14T04:20:56.854Z,2.70
2023-02-14T04:22:29.575Z,2.60
2023-02-14T04:24:02.252Z,2.60
2023-02-14T04:25:36.277Z,2.60
2023-02-14T04:27:11.754Z,2.50
2023-02-14T04:28:44.455Z,2.60
2023-02-14T04:30:20.685Z,2.60
2023-02-14T04:31:53.523Z,2.60
2023-02-14T04:33:26.322Z,2.50
2023-02-14T04:34:59.006Z,2.50
2023-02-14T04:36:30.752Z,2.50
2023-02-14T04:38:04.196Z,2.40
2023-02-14T04:39:37.635Z,2.40
2023-02-14T04:41:11.655Z,2.40
2023-02-14T04:42:44.410Z,2.40
2023-02-14T04:44:17.121Z,2.40
2023-02-14T04:45:49.814Z,2.40
2023-02-14T04:47:21.577Z,2.40
2023-02-14T04:48:54.243Z,2.50
2023-02-14T04:50:26.972Z,2.50
2023-02-14T04:51:59.967Z,2.50
2023-02-14T04:53:32.634Z,2.50
2023-02-14T04:55:06.447Z,2.50
2023-02-14T04:56:39.617Z,2.50
2023-02-14T04:58:12.312Z,2.50
2023-02-14T04:59:45.061Z,2.50
2023-02-14T05:01:16.861Z,2.50
2023-02-14T05:02:49.598Z,2.40
2023-02-14T05:04:22.536Z,2.40
2023-02-14T05:05:55.230Z,2.30
2023-02-14T05:07:27.924Z,2.30
2023-02-14T05:09:00.753Z,2.30
2023-02-14T05:10:33.495Z,2.30
2023-02-14T05:12:07.946Z,2.30
2023-02-14T05:13:40.671Z,2.20
2023-02-14T05:15:13.403Z,2.10
2023-02-14T05:16:46.117Z,2.00
2023-02-14T05:18:18.875Z,1.80
2023-02-14T05:19:51.613Z,1.70
2023-02-14T05:21:24.330Z,1.60
2023-02-14T05:22:57.002Z,1.50
2023-02-14T05:24:29.702Z,1.50
2023-02-14T05:26:02.418Z,1.40
2023-02-14T05:27:36.468Z,1.40
2023-02-14T05:29:09.365Z,1.40
2023-02-14T05:30:42.227Z,1.30
2023-02-14T05:32:15.110Z,1.30
2023-02-14T05:33:47.867Z,1.30
2023-02-14T05:35:20.571Z,1.30
2023-02-14T05:36:54.821Z,1.20
2023-02-14T05:38:27.860Z,1.20
2023-02-14T05:40:00.593Z,1.20
2023-02-14T05:41:33.463Z,1.20
2023-02-14T05:43:07.865Z,1.20
2023-02-14T05:44:40.610Z,1.20
2023-02-14T05:46:13.447Z,1.20
2023-02-14T05:47:46.180Z,1.20
2023-02-14T05:49:18.878Z,1.30
2023-02-14T05:50:51.575Z,1.30
2023-02-14T05:52:24.510Z,1.30
2023-02-14T05:53:59.845Z,1.30
2023-02-14T05:55:32.611Z,1.30
2023-02-14T05:57:05.348Z,1.30
2023-02-14T05:58:39.508Z,1.20
2023-02-14T06:00:13.521Z,1.20
2023-02-14T06:01:46.248Z,1.20
2023-02-14T06:03:18.981Z,1.10
2023-02-14T06:04:51.796Z,1.00
2023-02-14T06:06:24.499Z,1.00
2023-02-14T06:07:57.204Z,0.90
2023-02-14T06:09:30.081Z,0.90
2023-02-14T06:11:02.907Z,0.80
2023-02-14T06:12:35.634Z,0.90
2023-02-14T06:14:09.678Z,0.80
2023-02-14T06:15:42.498Z,0.80
2023-02-14T06:17:15.231Z,0.80
2023-02-14T06:18:47.951Z,0.90
2023-02-14T06:20:21.213Z,0.90
2023-02-14T06:21:53.935Z,0.90
2023-02-14T06:23:26.629Z,0.90
2023-02-14T06:24:59.456Z,0.90
2023-02-14T06:26:33.197Z,0.90
2023-02-14T06:28:06.554Z,0.90
2023-02-14T06:29:40.660Z,0.90
2023-02-14T06:31:17.212Z,0.90
2023-02-14T06:32:49.938Z,0.90
2023-02-14T06:34:22.613Z,0.90
2023-02-14T06:35:55.673Z,0.90
2023-02-14T06:37:28.361Z,0.90
2023-02-14T06:39:01.180Z,0.90
2023-02-14T06:40:34.835Z,0.90
2023-02-14T06:42:07.854Z,0.90
2023-02-14T06:43:40.615Z,0.80
2023-02-14T06:45:14.752Z,0.80
2023-02-14T06:46:47.427Z,0.80
2023-02-14T06:48:20.115Z,0.80
2023-02-14T06:49:52.820Z,0.80
2023-02-14T06:51:25.516Z,0.70
2023-02-14T06:52:58.217Z,0.60
2023-02-14T06:54:30.973Z,0.60
2023-02-14T06:56:03.924Z,0.50
2023-02-14T06:57:36.661Z,0.60
2023-02-14T06:59:09.354Z,0.60
2023-02-14T07:00:43.506Z,0.60
2023-02-14T07:02:16.373Z,0.50
2023-02-14T07:03:49.098Z,0.60
2023-02-14T07:05:21.882Z,0.60
2023-02-14T07:06:54.608Z,0.60
2023-02-14T07:08:27.494Z,0.70
2023-02-14T07:10:00.180Z,0.70
2023-02-14T07:11:32.995Z,0.70
2023-02-14T07:13:05.780Z,0.70
2023-02-14T07:14:38.463Z,0.70
2023-02-14T07:16:12.546Z,0.70
2023-02-14T07:17:45.605Z,0.70
2023-02-14T07:19:18.316Z,0.80
2023-02-14T07:20:51.048Z,0.80
2023-02-14T07:22:23.727Z,0.80
2023-02-14T07:23:56.441Z,0.80
2023-02-14T07:25:29.136Z,0.70
2023-02-14T07:27:01.828Z,0.70
2023-02-14T07:28:34.551Z,0.80
2023-02-14T07:30:09.222Z,0.80
2023-02-14T07:31:43.490Z,0.80
2023-02-14T07:33:16.387Z,0.90
2023-02-14T07:34:49.087Z,0.80
2023-02-14T07:36:21.792Z,0.80
2023-02-14T07:37:54.559Z,0.80
2023-02-14T07:39:27.300Z,0.80
2023-02-14T07:41:00.314Z,0.80
2023-02-14T07:42:33.217Z,0.70
2023-02-14T07:44:06.109Z,0.70
2023-02-14T07:45:38.814Z,0.60
2023-02-14T07:47:12.948Z,0.50
2023-02-14T07:48:45.828Z,0.60
2023-02-14T07:50:18.974Z,0.60
2023-02-14T07:51:51.716Z,0.50
2023-02-14T07:53:24.681Z,0.50
2023-02-14T07:54:57.413Z,0.40
2023-02-14T07:56:30.119Z,0.40
2023-02-14T07:58:03.391Z,0.30
2023-02-14T07:59:36.371Z,0.50
2023-02-14T08:01:09.110Z,0.50
2023-02-14T08:02:43.173Z,0.50
2023-02-14T08:04:15.896Z,0.50
2023-02-14T08:05:56.864Z,0.60
2023-02-14T08:07:29.646Z,0.60
2023-02-14T08:09:02.731Z,0.60
2023-02-14T08:10:35.486Z,0.70
2023-02-14T08:12:25.702Z,0.70
2023-02-14T08:13:58.384Z,0.70
2023-02-14T08:15:51.021Z,0.80
2023-02-14T08:17:23.748Z,0.80
2023-02-14T08:18:58.038Z,0.90
2023-02-14T08:20:30.846Z,0.90
2023-02-14T08:22:03.707Z,0.90
2023-02-14T08:23:36.890Z,1.00
2023-02-14T08:25:09.753Z,1.00
2023-02-14T08:26:42.484Z,1.00
2023-02-14T08:28:15.189Z,1.10
2023-02-14T08:29:47.907Z,1.10
2023-02-14T08:31:34.496Z,1.10
2023-02-14T08:33:08.493Z,1.10
2023-02-14T08:34:42.571Z,1.20
2023-02-14T08:36:17.667Z,1.20
2023-02-14T08:37:50.620Z,1.20
2023-02-14T08:39:23.801Z,1.30
2023-02-14T08:41:01.151Z,1.30
2023-02-14T08:42:34.012Z,1.30
2023-02-14T08:44:06.963Z,1.30
2023-02-14T08:45:40.240Z,1.40
2023-02-14T08:47:13.026Z,1.40
2023-02-14T08:48:45.986Z,1.40
2023-02-14T08:50:20.501Z,1.40
2023-02-14T08:51:54.506Z,1.40
2023-02-14T08:53:27.184Z,1.40
2023-02-14T08:55:00.032Z,1.40
2023-02-14T08:56:33.118Z,1.50
2023-02-14T08:58:06.863Z,1.50
2023-02-14T08:59:39.551Z,1.50
2023-02-14T09:01:14.269Z,1.40
2023-02-14T09:02:46.955Z,1.50
2023-02-14T09:04:19.950Z,1.50
2023-02-14T09:05:54.025Z,1.50
2023-02-14T09:07:27.059Z,1.50
2023-02-14T09:09:01.583Z,1.50
2023-02-14T09:10:35.214Z,1.50
2023-02-14T09:12:09.649Z,1.60
2023-02-14T09:13:43.789Z,1.60
2023-02-14T09:15:16.493Z,1.60
2023-02-14T09:16:49.315Z,1.70
2023-02-14T09:18:22.082Z,1.70
2023-02-14T09:19:54.826Z,1.70
2023-02-14T09:21:29.622Z,1.80
2023-02-14T09:23:02.582Z,1.80
2023-02-14T09:24:36.738Z,1.80
2023-02-14T09:26:11.405Z,1.80
2023-02-14T09:27:44.555Z,1.90
2023-02-14T09:29:17.886Z,1.90
2023-02-14T09:30:52.292Z,2.00
2023-02-14T09:32:27.197Z,1.90
2023-02-14T09:34:00.005Z,1.90
2023-02-14T09:35:32.316Z,1.90
2023-02-14T09:37:24.039Z,1.90
2023-02-14T09:38:56.759Z,1.90
2023-02-14T09:40:29.543Z,1.90
2023-02-14T09:42:26.423Z,1.90
2023-02-14T09:44:01.596Z,1.90
2023-02-14T09:45:34.987Z,2.00
2023-02-14T09:47:13.569Z,2.10
2023-02-14T09:48:49.288Z,2.10
2023-02-14T09:50:26.447Z,2.10
2023-02-14T09:52:00.583Z,2.10
2023-02-14T09:53:38.667Z,2.10
2023-02-14T09:55:16.213Z,2.10
2023-02-14T09:56:57.569Z,2.10
2023-02-14T09:58:34.513Z,2.20
2023-02-14T10:00:19.032Z,2.20
2023-02-14T10:01:57.631Z,2.20
2023-02-14T10:03:46.562Z,2.20
2023-02-14T10:05:23.549Z,2.30
2023-02-14T10:07:02.164Z,2.30
2023-02-14T10:08:48.261Z,2.30
2023-02-14T10:10:26.939Z,2.30
2023-02-14T10:12:01.619Z,2.30
2023-02-14T10:13:40.932Z,2.30
2023-02-14T10:15:18.831Z,2.30
2023-02-14T10:16:56.227Z,2.30
2023-02-14T10:18:36.517Z,2.30
2023-02-14T10:20:21.586Z,2.30
2023-02-14T10:21:57.584Z,2.30
2023-02-14T10:23:34.302Z,2.30
2023-02-14T10:25:17.194Z,2.30
2023-02-14T10:26:51.488Z,2.30
2023-02-14T10:28:32.331Z,2.30
2023-02-14T10:30:14.973Z,2.30
2023-02-14T10:31:55.867Z,2.30
2023-02-14T10:33:33.163Z,2.30
2023-02-14T10:35:12.756Z,2.30
2023-02-14T10:36:57.064Z,2.40
2023-02-14T10:38:38.945Z,2.30
2023-02-14T10:40:32.322Z,2.30
2023-02-14T10:42:14.682Z,2.30
2023-02-14T10:44:00.579Z,2.30
2023-02-14T10:45:39.987Z,2.30
2023-02-14T10:47:26.638Z,2.30
2023-02-14T10:49:12.006Z,2.30
2023-02-14T10:50:52.162Z,2.30
2023-02-14T10:52:29.772Z,2.40
2023-02-14T10:54:16.882Z,2.40
2023-02-14T10:55:55.251Z,2.40
2023-02-14T10:57:32.603Z,2.50
2023-02-14T10:59:19.284Z,2.50
2023-02-14T11:00:59.771Z,2.50
2023-02-14T11:02:36.351Z,2.50
2023-02-14T11:04:12.618Z,2.50
2023-02-14T11:05:48.248Z,2.50
2023-02-14T11:07:22.871Z,2.50
2023-02-14T11:08:57.278Z,2.60
2023-02-14T11:10:33.757Z,2.60
2023-02-14T11:12:08.857Z,2.50
2023-02-14T11:13:42.101Z,2.50
2023-02-14T11:15:27.507Z,2.50
2023-02-14T11:17:01.518Z,2.50
2023-02-14T11:18:35.933Z,2.50
2023-02-14T11:20:25.011Z,2.60
2023-02-14T11:21:59.797Z,2.50
2023-02-14T11:23:37.713Z,2.50
2023-02-14T11:25:20.574Z,2.50
2023-02-14T11:26:55.556Z,2.50
2023-02-14T11:28:29.736Z,2.50
2023-02-14T11:30:02.522Z,2.50
2023-02-14T11:31:37.889Z,2.50
2023-02-14T11:33:13.736Z,2.50
2023-02-14T11:34:48.636Z,2.40
2023-02-14T11:36:21.983Z,2.40
2023-02-14T11:37:56.264Z,2.40
2023-02-14T11:39:31.956Z,2.40
2023-02-14T11:41:07.113Z,2.40
2023-02-14T11:42:43.529Z,2.50
2023-02-14T11:44:22.581Z,2.50
2023-02-14T11:46:07.818Z,2.50
2023-02-14T11:47:42.783Z,2.50
2023-02-14T11:49:29.551Z,2.60
2023-02-14T11:51:06.067Z,2.60
2023-02-14T11:52:49.072Z,2.50
2023-02-14T11:54:30.604Z,2.50
2023-02-14T11:56:03.478Z,2.50
2023-02-14T11:57:39.708Z,2.50
2023-02-14T11:59:15.590Z,2.60
2023-02-14T12:00:54.829Z,2.60
2023-02-14T12:02:32.455Z,2.50
2023-02-14T12:04:08.959Z,2.50
2023-02-14T12:05:48.563Z,2.50
2023-02-14T12:07:25.717Z,2.50
2023-02-14T12:09:12.614Z,2.40
2023-02-14T12:10:45.349Z,2.30
2023-02-14T12:12:27.504Z,2.30
2023-02-14T12:14:00.311Z,2.30
2023-02-14T12:15:36.725Z,2.30
2023-02-14T12:17:25.709Z,2.30
2023-02-14T12:19:03.535Z,2.30
2023-02-14T12:20:41.815Z,2.30
2023-02-14T12:22:19.792Z,2.40
2023-02-14T12:24:01.273Z,2.30
2023-02-14T12:25:43.270Z,2.30
2023-02-14T12:27:21.233Z,2.30
2023-02-14T12:29:01.385Z,2.30
2023-02-14T12:30:35.764Z,2.30
2023-02-14T12:32:20.775Z,2.30
2023-02-14T12:33:53.787Z,2.30
2023-02-14T12:35:42.354Z,2.40
2023-02-14T12:37:23.311Z,2.30
2023-02-14T12:39:08.406Z,2.30
2023-02-14T12:40:52.897Z,2.30
2023-02-14T12:42:40.624Z,2.30
2023-02-14T12:44:22.925Z,2.40
2023-02-14T12:46:12.494Z,2.40
2023-02-14T12:47:56.963Z,2.50
2023-02-14T12:49:52.476Z,2.50
2023-02-14T12:51:31.046Z,2.50
2023-02-14T12:53:21.805Z,2.60
2023-02-14T12:55:08.971Z,2.60
2023-02-14T12:56:51.442Z,2.60
2023-02-14T12:58:38.016Z,2.60
2023-02-14T13:00:24.100Z,2.60
2023-02-14T13:02:36.655Z,2.60
2023-02-14T13:04:45.286Z,2.50
2023-02-14T13:06:28.779Z,2.50
2023-02-14T13:08:17.487Z,2.50
2023-02-14T13:09:59.320Z,2.50
2023-02-14T13:11:40.561Z,2.50
2023-02-14T13:13:19.599Z,2.40
2023-02-14T13:15:00.201Z,2.40
2023-02-14T13:16:40.310Z,2.40
2023-02-14T13:18:19.201Z,2.40
2023-02-14T13:20:01.730Z,2.40
2023-02-14T13:21:38.700Z,2.40
2023-02-14T13:23:15.099Z,2.40
2023-02-14T13:24:51.683Z,2.50
2023-02-14T13:26:30.297Z,2.50
2023-02-14T13:28:05.490Z,2.40
2023-02-14T13:29:44.954Z,2.50
2023-02-14T13:31:19.176Z,2.40
2023-02-14T13:32:54.277Z,2.40
2023-02-14T13:34:29.792Z,2.40
2023-02-14T13:36:07.668Z,2.40
2023-02-14T13:37:47.580Z,2.40
2023-02-14T13:39:28.624Z,2.40
2023-02-14T13:41:02.834Z,2.40
2023-02-14T13:42:53.402Z,2.50
2023-02-14T13:44:47.503Z,2.50
2023-02-14T13:46:23.128Z,2.50
2023-02-14T13:48:05.383Z,2.50
2023-02-14T13:49:41.333Z,2.60
2023-02-14T13:51:14.053Z,2.60
2023-02-14T13:52:49.588Z,2.70
2023-02-14T13:54:34.240Z,2.70
2023-02-14T13:56:32.422Z,2.70
2023-02-14T13:58:08.172Z,2.70
2023-02-14T13:59:40.891Z,2.70
2023-02-14T14:01:31.585Z,2.70
2023-02-14T14:03:05.390Z,2.70
2023-02-14T14:04:39.119Z,2.70
2023-02-14T14:06:12.508Z,2.70
2023-02-14T14:07:45.223Z,2.80
2023-02-14T14:09:53.736Z,2.70
2023-02-14T14:11:50.820Z,2.70
2023-02-14T14:13:57.577Z,2.70
2023-02-14T14:15:30.323Z,2.70
2023-02-14T14:17:05.789Z,2.60
2023-02-14T14:18:43.598Z,2.60
2023-02-14T14:20:44.731Z,2.60
2023-02-14T14:22:17.929Z,2.60
2023-02-14T14:24:06.817Z,2.60
2023-02-14T14:25:43.534Z,2.70
2023-02-14T14:27:18.711Z,2.70
2023-02-14T14:28:51.429Z,2.60
2023-02-14T14:30:29.174Z,2.70
2023-02-14T14:32:10.281Z,2.70
2023-02-14T14:33:43.055Z,2.70
2023-02-14T14:35:20.564Z,2.70
2023-02-14T14:37:03.831Z,2.70
2023-02-14T14:38:47.481Z,2.70
2023-02-14T14:40:26.366Z,2.70
2023-02-14T14:42:08.647Z,2.70
2023-02-14T14:43:42.430Z,2.70
2023-02-14T14:45:22.552Z,2.70
2023-02-14T14:47:00.413Z,2.80
2023-02-14T14:48:37.932Z,2.70
2023-02-14T14:50:16.383Z,2.70
2023-02-14T14:51:49.641Z,2.70
2023-02-14T14:53:26.001Z,2.60
2023-02-14T14:55:00.198Z,2.60
2023-02-14T14:56:35.167Z,2.50
2023-02-14T14:58:37.274Z,2.50
2023-02-14T15:00:27.111Z,2.40
2023-02-14T15:01:59.870Z,2.40
2023-02-14T15:03:33.176Z,2.40
2023-02-14T15:05:18.238Z,2.40
2023-02-14T15:06:51.682Z,2.50
2023-02-14T15:08:33.666Z,2.50
2023-02-14T15:10:22.522Z,2.60
2023-02-14T15:12:12.796Z,2.60
2023-02-14T15:13:53.762Z,2.60
2023-02-14T15:15:26.687Z,2.60
2023-02-14T15:17:01.679Z,2.60
2023-02-14T15:18:34.569Z,2.60
2023-02-14T15:20:11.238Z,2.60
2023-02-14T15:21:44.873Z,2.60
2023-02-14T15:23:19.975Z,2.60
2023-02-14T15:24:53.372Z,2.60
2023-02-14T15:26:30.119Z,2.60
2023-02-14T15:28:03.648Z,2.60
2023-02-14T15:29:37.680Z,2.60
2023-02-14T15:31:11.209Z,2.70
2023-02-14T15:32:44.126Z,2.70
2023-02-14T15:34:17.115Z,2.70
2023-02-14T15:35:50.145Z,2.80
2023-02-14T15:37:25.201Z,2.70
2023-02-14T15:38:59.883Z,2.80
2023-02-14T15:40:34.923Z,2.80
2023-02-14T15:42:22.510Z,2.80
2023-02-14T15:43:57.517Z,2.80
2023-02-14T15:45:32.441Z,2.80
2023-02-14T15:47:06.459Z,2.80
2023-02-14T15:48:41.820Z,2.80
2023-02-14T15:50:17.677Z,2.80
2023-02-14T15:51:51.918Z,2.80
2023-02-14T15:53:37.392Z,2.80
2023-02-14T15:55:11.758Z,2.80
2023-02-14T15:56:48.836Z,2.80
2023-02-14T15:58:24.662Z,2.90
2023-02-14T15:59:57.366Z,2.90
2023-02-14T16:01:33.590Z,2.90
2023-02-14T16:03:09.037Z,2.90
2023-02-14T16:04:41.761Z,2.90
2023-02-14T16:06:31.899Z,2.90
2023-02-14T16:08:06.732Z,2.90
2023-02-14T16:09:39.441Z,2.80
2023-02-14T16:11:15.736Z,2.80
2023-02-14T16:12:57.526Z,2.80
2023-02-14T16:14:32.666Z,2.80
2023-02-14T16:16:07.484Z,2.80
2023-02-14T16:17:43.850Z,2.90
2023-02-14T16:19:32.743Z,2.90
2023-02-14T16:21:17.716Z,2.90
2023-02-14T16:22:50.479Z,2.90
2023-02-14T16:24:23.180Z,2.90
2023-02-14T16:25:57.380Z,2.90
2023-02-14T16:27:31.523Z,3.00
2023-02-14T16:29:04.809Z,2.90
2023-02-14T16:30:38.854Z,3.00
2023-02-14T16:32:17.046Z,3.00
2023-02-14T16:33:51.610Z,3.00
2023-02-14T16:35:24.583Z,3.00
2023-02-14T16:36:57.318Z,3.00
2023-02-14T16:38:30.056Z,3.00
2023-02-14T16:40:03.081Z,3.00
2023-02-14T16:41:36.089Z,3.00
2023-02-14T16:43:13.646Z,3.00
2023-02-14T16:44:47.113Z,3.00
2023-02-14T16:46:21.929Z,3.10
2023-02-14T16:47:54.656Z,3.00
2023-02-14T16:49:28.730Z,3.00
2023-02-14T16:51:01.721Z,3.00
2023-02-14T16:52:34.768Z,3.00
2023-02-14T16:54:09.541Z,3.00
2023-02-14T16:55:42.709Z,3.00
2023-02-14T16:57:25.854Z,3.00
2023-02-14T16:59:00.056Z,3.00
2023-02-14T17:00:32.778Z,3.00
2023-02-14T17:02:05.496Z,3.00
2023-02-14T17:03:39.869Z,3.00
2023-02-14T17:05:14.010Z,3.00
2023-02-14T17:06:50.178Z,3.10
2023-02-14T17:08:22.880Z,3.10
2023-02-14T17:09:59.492Z,3.10
2023-02-14T17:11:33.570Z,3.10
2023-02-14T17:13:07.272Z,3.10
2023-02-14T17:14:42.847Z,3.10
2023-02-14T17:16:16.825Z,3.10
2023-02-14T17:17:51.640Z,3.10
2023-02-14T17:19:24.354Z,3.10
2023-02-14T17:21:00.363Z,3.10
2023-02-14T17:22:34.381Z,3.10
2023-02-14T17:24:07.513Z,3.10
2023-02-14T17:25:40.532Z,3.10
2023-02-14T17:27:13.264Z,3.10
2023-02-14T17:28:47.227Z,3.10
2023-02-14T17:30:20.213Z,3.10
2023-02-14T17:31:53.451Z,3.10
2023-02-14T17:33:26.562Z,3.10
2023-02-14T17:35:00.914Z,3.10
2023-02-14T17:36:34.983Z,3.10
2023-02-14T17:38:07.670Z,3.10
2023-02-14T17:39:40.411Z,3.10
2023-02-14T17:41:14.786Z,3.10
2023-02-14T17:42:47.511Z,3.10
2023-02-14T17:44:20.843Z,3.10
2023-02-14T17:45:53.579Z,3.10
2023-02-14T17:47:26.305Z,3.10
2023-02-14T17:49:02.388Z,3.10
2023-02-14T17:50:35.739Z,3.10
2023-02-14T17:52:09.791Z,3.10
2023-02-14T17:53:43.373Z,3.10
2023-02-14T17:55:16.720Z,3.10
2023-02-14T17:56:49.418Z,3.10
2023-02-14T17:58:22.194Z,3.20
2023-02-14T17:59:54.894Z,3.10
2023-02-14T18:01:31.286Z,3.10
2023-02-14T18:03:04.205Z,3.10
2023-02-14T18:04:37.274Z,3.10
2023-02-14T18:06:11.379Z,3.10
2023-02-14T18:07:45.516Z,3.10
2023-02-14T18:09:19.223Z,3.10
2023-02-14T18:10:51.906Z,3.10
2023-02-14T18:12:25.237Z,3.10
2023-02-14T18:13:59.494Z,3.10
2023-02-14T18:15:32.190Z,3.10
2023-02-14T18:17:05.794Z,3.10
2023-02-14T18:18:39.450Z,3.10
2023-02-14T18:20:12.673Z,3.10
2023-02-14T18:21:46.262Z,3.10
2023-02-14T18:23:20.282Z,3.10
2023-02-14T18:24:52.964Z,3.10
2023-02-14T18:26:26.769Z,3.10
2023-02-14T18:28:00.032Z,3.10
2023-02-14T18:29:32.900Z,3.10
2023-02-14T18:31:06.595Z,3.10
2023-02-14T18:32:39.343Z,3.20
2023-02-14T18:34:12.200Z,3.10
2023-02-14T18:35:44.998Z,3.10
2023-02-14T18:37:18.133Z,3.10
2023-02-14T18:38:52.259Z,3.10
2023-02-14T18:40:24.991Z,3.10
2023-02-14T18:41:59.816Z,3.10
2023-02-14T18:43:32.632Z,3.10
2023-02-14T18:45:05.826Z,3.20
2023-02-14T18:46:38.511Z,3.20
2023-02-14T18:48:11.203Z,3.20
2023-02-14T18:49:43.882Z,3.20
2023-02-14T18:51:18.642Z,3.20
2023-02-14T18:52:51.322Z,3.20
2023-02-14T18:54:25.603Z,3.20
2023-02-14T18:55:58.299Z,3.20
2023-02-14T18:57:31.376Z,3.20
2023-02-14T18:59:06.791Z,3.20
2023-02-14T19:00:39.828Z,3.20
2023-02-14T19:02:13.879Z,3.20
2023-02-14T19:03:46.726Z,3.20
2023-02-14T19:05:19.561Z,3.20
2023-02-14T19:06:52.267Z,3.20
2023-02-14T19:08:24.966Z,3.20
2023-02-14T19:09:59.053Z,3.20
2023-02-14T19:11:33.744Z,3.20
2023-02-14T19:13:07.147Z,3.20
2023-02-14T19:14:39.839Z,3.20
2023-02-14T19:16:13.104Z,3.20
2023-02-14T19:17:45.826Z,3.20
2023-02-14T19:19:18.906Z,3.20
2023-02-14T19:20:51.987Z,3.20
2023-02-14T19:22:24.733Z,3.20
2023-02-14T19:23:58.518Z,3.20
2023-02-14T19:25:34.436Z,3.20
2023-02-14T19:27:07.151Z,3.20
2023-02-14T19:28:40.132Z,3.20
2023-02-14T19:30:13.322Z,3.20
2023-02-14T19:31:48.210Z,3.10
2023-02-14T19:33:21.134Z,3.10
2023-02-14T19:34:53.900Z,3.10
2023-02-14T19:36:26.566Z,3.10
2023-02-14T19:38:03.295Z,3.10
2023-02-14T19:39:35.997Z,3.10
2023-02-14T19:41:16.556Z,3.10
2023-02-14T19:42:49.259Z,3.10
2023-02-14T19:44:25.090Z,3.10
2023-02-14T19:45:58.052Z,3.10
2023-02-14T19:47:45.912Z,3.10
2023-02-14T19:49:21.058Z,3.10
2023-02-14T19:50:54.958Z,3.10
2023-02-14T19:52:28.024Z,3.20
2023-02-14T19:54:03.020Z,3.20
2023-02-14T19:55:35.746Z,3.20
2023-02-14T19:57:13.293Z,3.20
2023-02-14T19:58:46.013Z,3.20
2023-02-14T20:00:20.852Z,3.20
2023-02-14T20:01:54.544Z,3.20
2023-02-14T20:03:27.321Z,3.20
2023-02-14T20:05:04.137Z,3.10
2023-02-14T20:06:37.869Z,3.10
2023-02-14T20:08:10.568Z,3.10
2023-02-14T20:09:43.258Z,3.10
2023-02-14T20:11:32.581Z,3.10
2023-02-14T20:13:06.629Z,3.10
2023-02-14T20:14:50.868Z,3.10
2023-02-14T20:16:25.139Z,3.10
2023-02-14T20:17:57.999Z,3.10
2023-02-14T20:19:34.508Z,3.10
2023-02-14T20:21:07.468Z,3.10
2023-02-14T20:22:40.411Z,3.10
2023-02-14T20:24:16.314Z,3.10
2023-02-14T20:25:49.262Z,3.10
2023-02-14T20:27:24.549Z,3.10
2023-02-14T20:28:59.486Z,3.10
2023-02-14T20:30:32.215Z,3.10
2023-02-14T20:32:05.868Z,3.10
2023-02-14T20:33:38.906Z,3.10
2023-02-14T20:35:11.609Z,3.10
2023-02-14T20:36:45.059Z,3.10
2023-02-14T20:38:17.766Z,3.10
2023-02-14T20:39:50.526Z,3.10
2023-02-14T20:41:23.973Z,3.10
2023-02-14T20:42:56.863Z,3.10
2023-02-14T20:44:32.004Z,3.10
2023-02-14T20:46:06.586Z,3.10
2023-02-14T20:47:39.300Z,3.10
2023-02-14T20:49:12.441Z,3.10
2023-02-14T20:50:45.595Z,3.00
2023-02-14T20:52:18.856Z,3.00
2023-02-14T20:53:52.598Z,3.10
2023-02-14T20:55:26.925Z,3.00
2023-02-14T20:56:59.654Z,3.00
2023-02-14T20:58:33.137Z,3.00
2023-02-14T21:00:08.808Z,3.10
2023-02-14T21:01:41.661Z,3.10
2023-02-14T21:03:14.385Z,3.10
2023-02-14T21:04:47.093Z,3.10
2023-02-14T21:06:21.193Z,3.10
2023-02-14T21:07:53.870Z,3.10
2023-02-14T21:09:27.238Z,3.10
2023-02-14T21:11:00.727Z,3.00
2023-02-14T21:12:33.923Z,3.00
2023-02-14T21:14:06.694Z,3.00
2023-02-14T21:15:40.723Z,3.10
2023-02-14T21:17:13.996Z,3.00
2023-02-14T21:18:51.692Z,3.00
2023-02-14T21:20:24.859Z,3.00
2023-02-14T21:21:57.824Z,3.00
2023-02-14T21:23:30.527Z,3.00